sensor_id;sensor_type;location;lat;lon;timestamp;pressure;altitude;pressure_sealevel;temperature
74536;BMP180;63013;51.104;-115.370;2023-01-19T00:00:59;86088.80;;;22.72
74536;BMP180;63013;51.104;-115.370;2023-01-19T00:03:26;86087.00;;;22.70
74536;BMP180;63013;51.104;-115.370;2023-01-19T00:05:54;86093.00;;;22.70
74536;BMP180;63013;51.104;-115.370;2023-01-19T00:08:21;86092.60;;;22.70
74536;BMP180;63013;51.104;-115.370;2023-01-19T00:10:49;86094.20;;;22.70
74536;BMP180;63013;51.104;-115.370;2023-01-19T00:13:17;86095.20;;;22.70
74536;BMP180;63013;51.104;-115.370;2023-01-19T00:15:44;86093.20;;;22.70
74536;BMP180;63013;51.104;-115.370;2023-01-19T00:18:11;86097.80;;;22.70
74536;BMP180;63013;51.104;-115.370;2023-01-19T00:20:40;86097.80;;;22.70
74536;BMP180;63013;51.104;-115.370;2023-01-19T00:23:08;86094.00;;;22.66
74536;BMP180;63013;51.104;-115.370;2023-01-19T00:25:37;86095.40;;;22.62
74536;BMP180;63013;51.104;-115.370;2023-01-19T00:28:16;86099.60;;;22.60
74536;BMP180;63013;51.104;-115.370;2023-01-19T00:30:49;86102.60;;;22.60
74536;BMP180;63013;51.104;-115.370;2023-01-19T00:33:17;86110.80;;;22.60
74536;BMP180;63013;51.104;-115.370;2023-01-19T00:35:44;86111.40;;;22.60
74536;BMP180;63013;51.104;-115.370;2023-01-19T00:38:16;86108.40;;;22.60
74536;BMP180;63013;51.104;-115.370;2023-01-19T00:40:43;86103.00;;;22.60
74536;BMP180;63013;51.104;-115.370;2023-01-19T00:43:11;86103.20;;;22.60
74536;BMP180;63013;51.104;-115.370;2023-01-19T00:45:38;86092.00;;;22.60
74536;BMP180;63013;51.104;-115.370;2023-01-19T00:48:05;86094.00;;;22.58
74536;BMP180;63013;51.104;-115.370;2023-01-19T00:50:32;86089.20;;;22.54
74536;BMP180;63013;51.104;-115.370;2023-01-19T00:53:00;86095.00;;;22.50
74536;BMP180;63013;51.104;-115.370;2023-01-19T00:55:29;86091.00;;;22.50
74536;BMP180;63013;51.104;-115.370;2023-01-19T00:57:57;86087.60;;;22.50
74536;BMP180;63013;51.104;-115.370;2023-01-19T01:00:25;86090.20;;;22.50
74536;BMP180;63013;51.104;-115.370;2023-01-19T01:02:56;86084.60;;;22.50
74536;BMP180;63013;51.104;-115.370;2023-01-19T01:05:23;86092.60;;;22.50
74536;BMP180;63013;51.104;-115.370;2023-01-19T01:07:51;86092.20;;;22.42
74536;BMP180;63013;51.104;-115.370;2023-01-19T01:10:27;86093.40;;;22.40
74536;BMP180;63013;51.104;-115.370;2023-01-19T01:12:55;86095.00;;;22.40
74536;BMP180;63013;51.104;-115.370;2023-01-19T01:15:22;86087.20;;;22.40
74536;BMP180;63013;51.104;-115.370;2023-01-19T01:17:49;86087.00;;;22.40
74536;BMP180;63013;51.104;-115.370;2023-01-19T01:20:23;86089.40;;;22.40
74536;BMP180;63013;51.104;-115.370;2023-01-19T01:22:53;86087.00;;;22.40
74536;BMP180;63013;51.104;-115.370;2023-01-19T01:25:24;86090.60;;;22.40
74536;BMP180;63013;51.104;-115.370;2023-01-19T01:27:52;86081.00;;;22.40
74536;BMP180;63013;51.104;-115.370;2023-01-19T01:30:20;86081.80;;;22.40
74536;BMP180;63013;51.104;-115.370;2023-01-19T01:32:49;86078.40;;;22.40
74536;BMP180;63013;51.104;-115.370;2023-01-19T01:35:17;86079.40;;;22.40
74536;BMP180;63013;51.104;-115.370;2023-01-19T01:37:44;86074.20;;;22.40
74536;BMP180;63013;51.104;-115.370;2023-01-19T01:40:16;86071.20;;;22.40
74536;BMP180;63013;51.104;-115.370;2023-01-19T01:42:43;86066.80;;;22.40
74536;BMP180;63013;51.104;-115.370;2023-01-19T01:45:34;86063.80;;;22.40
74536;BMP180;63013;51.104;-115.370;2023-01-19T01:48:16;86058.80;;;22.40
74536;BMP180;63013;51.104;-115.370;2023-01-19T01:50:54;86067.20;;;22.40
74536;BMP180;63013;51.104;-115.370;2023-01-19T01:53:46;86067.40;;;22.40
74536;BMP180;63013;51.104;-115.370;2023-01-19T01:56:20;86076.20;;;22.40
74536;BMP180;63013;51.104;-115.370;2023-01-19T01:58:50;86068.00;;;22.40
74536;BMP180;63013;51.104;-115.370;2023-01-19T02:01:18;86070.60;;;22.40
74536;BMP180;63013;51.104;-115.370;2023-01-19T02:04:06;86064.60;;;22.38
74536;BMP180;63013;51.104;-115.370;2023-01-19T02:06:37;86066.20;;;22.34
74536;BMP180;63013;51.104;-115.370;2023-01-19T02:09:23;86072.00;;;22.36
74536;BMP180;63013;51.104;-115.370;2023-01-19T02:12:10;86075.00;;;22.30
74536;BMP180;63013;51.104;-115.370;2023-01-19T02:15:22;86075.20;;;22.32
74536;BMP180;63013;51.104;-115.370;2023-01-19T02:17:51;86080.60;;;22.30
74536;BMP180;63013;51.104;-115.370;2023-01-19T02:20:24;86076.60;;;22.30
74536;BMP180;63013;51.104;-115.370;2023-01-19T02:22:54;86085.80;;;22.30
74536;BMP180;63013;51.104;-115.370;2023-01-19T02:25:23;86090.80;;;22.30
74536;BMP180;63013;51.104;-115.370;2023-01-19T02:27:53;86091.40;;;22.30
74536;BMP180;63013;51.104;-115.370;2023-01-19T02:30:21;86087.80;;;22.30
74536;BMP180;63013;51.104;-115.370;2023-01-19T02:32:49;86081.40;;;22.30
74536;BMP180;63013;51.104;-115.370;2023-01-19T02:35:16;86085.20;;;22.30
74536;BMP180;63013;51.104;-115.370;2023-01-19T02:37:45;86076.40;;;22.30
74536;BMP180;63013;51.104;-115.370;2023-01-19T02:40:17;86073.80;;;22.28
74536;BMP180;63013;51.104;-115.370;2023-01-19T02:42:55;86078.80;;;22.22
74536;BMP180;63013;51.104;-115.370;2023-01-19T02:45:27;86073.80;;;22.20
74536;BMP180;63013;51.104;-115.370;2023-01-19T02:47:54;86064.20;;;22.20
74536;BMP180;63013;51.104;-115.370;2023-01-19T02:50:41;86068.40;;;22.20
74536;BMP180;63013;51.104;-115.370;2023-01-19T02:59:09;86066.80;;;22.20
74536;BMP180;63013;51.104;-115.370;2023-01-19T03:05:25;86060.20;;;22.10
74536;BMP180;63013;51.104;-115.370;2023-01-19T03:08:32;86059.60;;;22.10
74536;BMP180;63013;51.104;-115.370;2023-01-19T03:11:07;86071.20;;;22.10
74536;BMP180;63013;51.104;-115.370;2023-01-19T03:14:03;86067.40;;;22.10
74536;BMP180;63013;51.104;-115.370;2023-01-19T03:16:55;86075.40;;;22.10
74536;BMP180;63013;51.104;-115.370;2023-01-19T03:19:32;86068.60;;;22.00
74536;BMP180;63013;51.104;-115.370;2023-01-19T03:22:11;86070.00;;;22.00
74536;BMP180;63013;51.104;-115.370;2023-01-19T03:24:44;86071.80;;;22.00
74536;BMP180;63013;51.104;-115.370;2023-01-19T03:27:24;86083.80;;;22.00
74536;BMP180;63013;51.104;-115.370;2023-01-19T03:32:48;86078.00;;;22.00
74536;BMP180;63013;51.104;-115.370;2023-01-19T03:35:19;86075.00;;;21.96
74536;BMP180;63013;51.104;-115.370;2023-01-19T03:37:54;86074.80;;;21.94
74536;BMP180;63013;51.104;-115.370;2023-01-19T03:40:29;86077.40;;;21.90
74536;BMP180;63013;51.104;-115.370;2023-01-19T03:43:00;86076.20;;;21.90
74536;BMP180;63013;51.104;-115.370;2023-01-19T03:45:30;86069.60;;;21.90
74536;BMP180;63013;51.104;-115.370;2023-01-19T03:47:59;86065.80;;;21.90
74536;BMP180;63013;51.104;-115.370;2023-01-19T03:50:33;86070.40;;;21.90
74536;BMP180;63013;51.104;-115.370;2023-01-19T03:53:08;86071.20;;;21.90
74536;BMP180;63013;51.104;-115.370;2023-01-19T03:55:39;86066.20;;;21.88
74536;BMP180;63013;51.104;-115.370;2023-01-19T03:58:07;86065.40;;;21.84
74536;BMP180;63013;51.104;-115.370;2023-01-19T04:00:35;86066.60;;;21.80
74536;BMP180;63013;51.104;-115.370;2023-01-19T04:03:13;86074.80;;;21.80
74536;BMP180;63013;51.104;-115.370;2023-01-19T04:05:41;86079.80;;;21.80
74536;BMP180;63013;51.104;-115.370;2023-01-19T04:08:08;86076.00;;;21.80
74536;BMP180;63013;51.104;-115.370;2023-01-19T04:10:36;86075.20;;;21.80
74536;BMP180;63013;51.104;-115.370;2023-01-19T04:13:04;86082.20;;;21.80
74536;BMP180;63013;51.104;-115.370;2023-01-19T04:15:32;86083.80;;;21.80
74536;BMP180;63013;51.104;-115.370;2023-01-19T04:18:00;86091.00;;;21.80
74536;BMP180;63013;51.104;-115.370;2023-01-19T04:20:28;86085.00;;;21.80
74536;BMP180;63013;51.104;-115.370;2023-01-19T04:23:00;86088.00;;;21.80
74536;BMP180;63013;51.104;-115.370;2023-01-19T04:25:28;86090.60;;;21.72
74536;BMP180;63013;51.104;-115.370;2023-01-19T04:27:55;86087.40;;;21.70
74536;BMP180;63013;51.104;-115.370;2023-01-19T04:30:26;86089.40;;;21.70
74536;BMP180;63013;51.104;-115.370;2023-01-19T04:32:53;86082.80;;;21.70
74536;BMP180;63013;51.104;-115.370;2023-01-19T04:35:23;86083.40;;;21.70
74536;BMP180;63013;51.104;-115.370;2023-01-19T04:37:51;86082.20;;;21.70
74536;BMP180;63013;51.104;-115.370;2023-01-19T04:40:18;86084.00;;;21.70
74536;BMP180;63013;51.104;-115.370;2023-01-19T04:42:45;86089.20;;;21.70
74536;BMP180;63013;51.104;-115.370;2023-01-19T04:45:13;86091.20;;;21.70
74536;BMP180;63013;51.104;-115.370;2023-01-19T04:47:41;86085.40;;;21.66
74536;BMP180;63013;51.104;-115.370;2023-01-19T04:50:10;86091.60;;;21.62
74536;BMP180;63013;51.104;-115.370;2023-01-19T04:52:37;86089.80;;;21.60
74536;BMP180;63013;51.104;-115.370;2023-01-19T04:55:05;86092.60;;;21.60
74536;BMP180;63013;51.104;-115.370;2023-01-19T04:57:33;86094.00;;;21.60
74536;BMP180;63013;51.104;-115.370;2023-01-19T05:00:00;86095.20;;;21.60
74536;BMP180;63013;51.104;-115.370;2023-01-19T05:02:28;86102.00;;;21.60
74536;BMP180;63013;51.104;-115.370;2023-01-19T05:04:55;86098.00;;;21.56
74536;BMP180;63013;51.104;-115.370;2023-01-19T05:07:22;86094.20;;;21.50
74536;BMP180;63013;51.104;-115.370;2023-01-19T05:09:50;86086.40;;;21.50
74536;BMP180;63013;51.104;-115.370;2023-01-19T05:12:17;86099.20;;;21.50
74536;BMP180;63013;51.104;-115.370;2023-01-19T05:14:47;86102.60;;;21.50
74536;BMP180;63013;51.104;-115.370;2023-01-19T05:17:15;86100.20;;;21.50
74536;BMP180;63013;51.104;-115.370;2023-01-19T05:19:42;86101.80;;;21.50
74536;BMP180;63013;51.104;-115.370;2023-01-19T05:22:09;86098.00;;;21.44
74536;BMP180;63013;51.104;-115.370;2023-01-19T05:24:36;86100.20;;;21.42
74536;BMP180;63013;51.104;-115.370;2023-01-19T05:27:04;86100.20;;;21.40
74536;BMP180;63013;51.104;-115.370;2023-01-19T05:29:31;86106.20;;;21.40
74536;BMP180;63013;51.104;-115.370;2023-01-19T05:32:00;86106.20;;;21.40
74536;BMP180;63013;51.104;-115.370;2023-01-19T05:34:27;86105.00;;;21.40
74536;BMP180;63013;51.104;-115.370;2023-01-19T05:36:55;86106.60;;;21.40
74536;BMP180;63013;51.104;-115.370;2023-01-19T05:39:22;86114.80;;;21.32
74536;BMP180;63013;51.104;-115.370;2023-01-19T05:41:49;86110.20;;;21.30
74536;BMP180;63013;51.104;-115.370;2023-01-19T05:44:16;86114.80;;;21.30
74536;BMP180;63013;51.104;-115.370;2023-01-19T05:46:44;86106.40;;;21.30
74536;BMP180;63013;51.104;-115.370;2023-01-19T05:49:12;86106.00;;;21.30
74536;BMP180;63013;51.104;-115.370;2023-01-19T05:51:39;86114.60;;;21.30
74536;BMP180;63013;51.104;-115.370;2023-01-19T05:54:13;86111.60;;;21.30
74536;BMP180;63013;51.104;-115.370;2023-01-19T05:56:41;86120.20;;;21.30
74536;BMP180;63013;51.104;-115.370;2023-01-19T05:59:08;86122.80;;;21.22
74536;BMP180;63013;51.104;-115.370;2023-01-19T06:01:36;86130.80;;;21.20
74536;BMP180;63013;51.104;-115.370;2023-01-19T06:04:04;86133.60;;;21.20
74536;BMP180;63013;51.104;-115.370;2023-01-19T06:06:31;86134.60;;;21.20
74536;BMP180;63013;51.104;-115.370;2023-01-19T06:08:59;86143.60;;;21.20
74536;BMP180;63013;51.104;-115.370;2023-01-19T06:11:26;86143.20;;;21.20
74536;BMP180;63013;51.104;-115.370;2023-01-19T06:13:54;86140.60;;;21.20
74536;BMP180;63013;51.104;-115.370;2023-01-19T06:16:21;86142.80;;;21.18
74536;BMP180;63013;51.104;-115.370;2023-01-19T06:18:48;86147.00;;;21.10
74536;BMP180;63013;51.104;-115.370;2023-01-19T06:21:15;86147.80;;;21.10
74536;BMP180;63013;51.104;-115.370;2023-01-19T06:23:43;86148.80;;;21.10
74536;BMP180;63013;51.104;-115.370;2023-01-19T06:26:10;86154.00;;;21.10
74536;BMP180;63013;51.104;-115.370;2023-01-19T06:28:38;86154.20;;;21.10
74536;BMP180;63013;51.104;-115.370;2023-01-19T06:31:05;86155.20;;;21.10
74536;BMP180;63013;51.104;-115.370;2023-01-19T06:33:32;86160.80;;;21.10
74536;BMP180;63013;51.104;-115.370;2023-01-19T06:36:00;86157.80;;;21.10
74536;BMP180;63013;51.104;-115.370;2023-01-19T06:38:27;86160.60;;;21.10
74536;BMP180;63013;51.104;-115.370;2023-01-19T06:40:57;86161.80;;;21.04
74536;BMP180;63013;51.104;-115.370;2023-01-19T06:43:25;86159.60;;;21.00
74536;BMP180;63013;51.104;-115.370;2023-01-19T06:45:52;86159.60;;;21.00
74536;BMP180;63013;51.104;-115.370;2023-01-19T06:48:23;86164.80;;;21.00
74536;BMP180;63013;51.104;-115.370;2023-01-19T06:50:50;86164.80;;;21.00
74536;BMP180;63013;51.104;-115.370;2023-01-19T06:53:18;86168.20;;;21.00
74536;BMP180;63013;51.104;-115.370;2023-01-19T06:55:47;86169.20;;;21.00
74536;BMP180;63013;51.104;-115.370;2023-01-19T06:58:15;86172.20;;;21.00
74536;BMP180;63013;51.104;-115.370;2023-01-19T07:00:42;86169.80;;;21.00
74536;BMP180;63013;51.104;-115.370;2023-01-19T07:03:18;86162.00;;;20.90
74536;BMP180;63013;51.104;-115.370;2023-01-19T07:05:45;86166.00;;;20.90
74536;BMP180;63013;51.104;-115.370;2023-01-19T07:08:15;86168.40;;;20.90
74536;BMP180;63013;51.104;-115.370;2023-01-19T07:10:42;86175.00;;;20.90
74536;BMP180;63013;51.104;-115.370;2023-01-19T07:13:10;86181.40;;;20.90
74536;BMP180;63013;51.104;-115.370;2023-01-19T07:15:37;86182.80;;;20.90
74536;BMP180;63013;51.104;-115.370;2023-01-19T07:18:04;86183.20;;;20.90
74536;BMP180;63013;51.104;-115.370;2023-01-19T07:20:34;86188.00;;;20.88
74536;BMP180;63013;51.104;-115.370;2023-01-19T07:23:03;86189.60;;;20.80
74536;BMP180;63013;51.104;-115.370;2023-01-19T07:25:30;86188.40;;;20.80
74536;BMP180;63013;51.104;-115.370;2023-01-19T07:27:58;86200.40;;;20.80
74536;BMP180;63013;51.104;-115.370;2023-01-19T07:30:26;86203.00;;;20.80
74536;BMP180;63013;51.104;-115.370;2023-01-19T07:32:57;86202.60;;;20.80
74536;BMP180;63013;51.104;-115.370;2023-01-19T07:35:25;86201.20;;;20.80
74536;BMP180;63013;51.104;-115.370;2023-01-19T07:37:52;86203.80;;;20.80
74536;BMP180;63013;51.104;-115.370;2023-01-19T07:40:20;86205.00;;;20.78
74536;BMP180;63013;51.104;-115.370;2023-01-19T07:42:48;86203.80;;;20.74
74536;BMP180;63013;51.104;-115.370;2023-01-19T07:45:18;86209.00;;;20.70
74536;BMP180;63013;51.104;-115.370;2023-01-19T07:47:47;86213.00;;;20.70
74536;BMP180;63013;51.104;-115.370;2023-01-19T07:50:17;86215.80;;;20.70
74536;BMP180;63013;51.104;-115.370;2023-01-19T07:52:47;86216.40;;;20.70
74536;BMP180;63013;51.104;-115.370;2023-01-19T07:55:20;86218.20;;;20.70
74536;BMP180;63013;51.104;-115.370;2023-01-19T07:57:49;86223.80;;;20.70
74536;BMP180;63013;51.104;-115.370;2023-01-19T08:00:20;86231.20;;;20.62
74536;BMP180;63013;51.104;-115.370;2023-01-19T08:02:51;86237.00;;;20.60
74536;BMP180;63013;51.104;-115.370;2023-01-19T08:05:20;86239.00;;;20.60
74536;BMP180;63013;51.104;-115.370;2023-01-19T08:07:47;86241.80;;;20.60
74536;BMP180;63013;51.104;-115.370;2023-01-19T08:10:16;86245.20;;;20.60
74536;BMP180;63013;51.104;-115.370;2023-01-19T08:12:43;86244.60;;;20.60
74536;BMP180;63013;51.104;-115.370;2023-01-19T08:15:11;86244.40;;;20.56
74536;BMP180;63013;51.104;-115.370;2023-01-19T08:17:38;86251.60;;;20.50
74536;BMP180;63013;51.104;-115.370;2023-01-19T08:20:06;86246.80;;;20.50
74536;BMP180;63013;51.104;-115.370;2023-01-19T08:22:35;86250.00;;;20.50
74536;BMP180;63013;51.104;-115.370;2023-01-19T08:25:02;86249.80;;;20.50
74536;BMP180;63013;51.104;-115.370;2023-01-19T08:27:29;86255.00;;;20.50
74536;BMP180;63013;51.104;-115.370;2023-01-19T08:29:57;86251.00;;;20.50
74536;BMP180;63013;51.104;-115.370;2023-01-19T08:32:24;86250.60;;;20.50
74536;BMP180;63013;51.104;-115.370;2023-01-19T08:34:52;86257.00;;;20.46
74536;BMP180;63013;51.104;-115.370;2023-01-19T08:37:19;86257.00;;;20.40
74536;BMP180;63013;51.104;-115.370;2023-01-19T08:39:46;86258.20;;;20.40
74536;BMP180;63013;51.104;-115.370;2023-01-19T08:42:14;86262.60;;;20.40
74536;BMP180;63013;51.104;-115.370;2023-01-19T08:44:41;86262.80;;;20.40
74536;BMP180;63013;51.104;-115.370;2023-01-19T08:47:08;86267.20;;;20.40
74536;BMP180;63013;51.104;-115.370;2023-01-19T08:49:35;86276.60;;;20.40
74536;BMP180;63013;51.104;-115.370;2023-01-19T08:52:03;86276.80;;;20.40
74536;BMP180;63013;51.104;-115.370;2023-01-19T08:54:30;86278.20;;;20.40
74536;BMP180;63013;51.104;-115.370;2023-01-19T08:56:57;86285.20;;;20.32
74536;BMP180;63013;51.104;-115.370;2023-01-19T08:59:24;86289.80;;;20.30
74536;BMP180;63013;51.104;-115.370;2023-01-19T09:01:51;86287.20;;;20.30
74536;BMP180;63013;51.104;-115.370;2023-01-19T09:04:19;86290.20;;;20.30
74536;BMP180;63013;51.104;-115.370;2023-01-19T09:06:46;86294.40;;;20.30
74536;BMP180;63013;51.104;-115.370;2023-01-19T09:09:14;86293.00;;;20.30
74536;BMP180;63013;51.104;-115.370;2023-01-19T09:11:41;86292.20;;;20.30
74536;BMP180;63013;51.104;-115.370;2023-01-19T09:14:08;86288.20;;;20.30
74536;BMP180;63013;51.104;-115.370;2023-01-19T09:16:35;86292.60;;;20.24
74536;BMP180;63013;51.104;-115.370;2023-01-19T09:19:02;86293.20;;;20.20
74536;BMP180;63013;51.104;-115.370;2023-01-19T09:21:30;86292.60;;;20.20
74536;BMP180;63013;51.104;-115.370;2023-01-19T09:23:57;86293.60;;;20.20
74536;BMP180;63013;51.104;-115.370;2023-01-19T09:26:24;86296.00;;;20.20
74536;BMP180;63013;51.104;-115.370;2023-01-19T09:28:51;86294.40;;;20.20
74536;BMP180;63013;51.104;-115.370;2023-01-19T09:31:19;86304.20;;;20.20
74536;BMP180;63013;51.104;-115.370;2023-01-19T09:33:47;86308.40;;;20.20
74536;BMP180;63013;51.104;-115.370;2023-01-19T09:36:14;86317.60;;;20.20
74536;BMP180;63013;51.104;-115.370;2023-01-19T09:38:41;86315.40;;;20.12
74536;BMP180;63013;51.104;-115.370;2023-01-19T09:41:20;86319.40;;;20.12
74536;BMP180;63013;51.104;-115.370;2023-01-19T09:43:59;86323.00;;;20.10
74536;BMP180;63013;51.104;-115.370;2023-01-19T09:46:38;86331.20;;;20.10
74536;BMP180;63013;51.104;-115.370;2023-01-19T09:49:18;86333.20;;;20.10
74536;BMP180;63013;51.104;-115.370;2023-01-19T09:51:48;86335.40;;;20.10
74536;BMP180;63013;51.104;-115.370;2023-01-19T09:54:34;86340.40;;;20.10
74536;BMP180;63013;51.104;-115.370;2023-01-19T09:57:10;86340.40;;;20.00
74536;BMP180;63013;51.104;-115.370;2023-01-19T09:59:38;86345.80;;;20.00
74536;BMP180;63013;51.104;-115.370;2023-01-19T10:02:41;86350.60;;;20.00
74536;BMP180;63013;51.104;-115.370;2023-01-19T10:10:54;86368.20;;;20.00
74536;BMP180;63013;51.104;-115.370;2023-01-19T10:13:32;86369.60;;;19.96
74536;BMP180;63013;51.104;-115.370;2023-01-19T10:18:47;86372.00;;;19.90
74536;BMP180;63013;51.104;-115.370;2023-01-19T10:21:41;86377.20;;;19.90
74536;BMP180;63013;51.104;-115.370;2023-01-19T10:24:24;86379.60;;;19.90
74536;BMP180;63013;51.104;-115.370;2023-01-19T10:26:55;86373.60;;;19.90
74536;BMP180;63013;51.104;-115.370;2023-01-19T10:29:36;86378.60;;;19.90
74536;BMP180;63013;51.104;-115.370;2023-01-19T10:32:12;86386.40;;;19.90
74536;BMP180;63013;51.104;-115.370;2023-01-19T10:34:42;86388.20;;;19.90
74536;BMP180;63013;51.104;-115.370;2023-01-19T10:37:32;86389.80;;;19.84
74536;BMP180;63013;51.104;-115.370;2023-01-19T10:42:40;86400.20;;;19.80
74536;BMP180;63013;51.104;-115.370;2023-01-19T10:45:25;86405.20;;;19.80
74536;BMP180;63013;51.104;-115.370;2023-01-19T10:47:59;86405.00;;;19.80
74536;BMP180;63013;51.104;-115.370;2023-01-19T10:50:38;86408.00;;;19.80
74536;BMP180;63013;51.104;-115.370;2023-01-19T10:53:20;86415.80;;;19.80
74536;BMP180;63013;51.104;-115.370;2023-01-19T10:56:20;86417.00;;;19.80
74536;BMP180;63013;51.104;-115.370;2023-01-19T10:58:48;86418.80;;;19.80
74536;BMP180;63013;51.104;-115.370;2023-01-19T11:01:20;86415.20;;;19.70
74536;BMP180;63013;51.104;-115.370;2023-01-19T11:03:48;86419.20;;;19.70
74536;BMP180;63013;51.104;-115.370;2023-01-19T11:06:23;86425.60;;;19.70
74536;BMP180;63013;51.104;-115.370;2023-01-19T11:09:06;86429.60;;;19.70
74536;BMP180;63013;51.104;-115.370;2023-01-19T11:11:51;86435.40;;;19.70
74536;BMP180;63013;51.104;-115.370;2023-01-19T11:14:22;86430.80;;;19.70
74536;BMP180;63013;51.104;-115.370;2023-01-19T11:16:55;86433.40;;;19.70
74536;BMP180;63013;51.104;-115.370;2023-01-19T11:19:30;86438.00;;;19.70
74536;BMP180;63013;51.104;-115.370;2023-01-19T11:22:19;86437.60;;;19.70
74536;BMP180;63013;51.104;-115.370;2023-01-19T11:24:49;86445.80;;;19.68
74536;BMP180;63013;51.104;-115.370;2023-01-19T11:27:19;86453.80;;;19.60
74536;BMP180;63013;51.104;-115.370;2023-01-19T11:29:52;86453.40;;;19.60
74536;BMP180;63013;51.104;-115.370;2023-01-19T11:32:27;86450.60;;;19.60
74536;BMP180;63013;51.104;-115.370;2023-01-19T11:34:54;86459.60;;;19.60
74536;BMP180;63013;51.104;-115.370;2023-01-19T11:37:27;86461.60;;;19.60
74536;BMP180;63013;51.104;-115.370;2023-01-19T11:39:59;86464.00;;;19.60
74536;BMP180;63013;51.104;-115.370;2023-01-19T11:42:32;86466.00;;;19.60
74536;BMP180;63013;51.104;-115.370;2023-01-19T11:45:16;86472.80;;;19.60
74536;BMP180;63013;51.104;-115.370;2023-01-19T11:47:47;86472.40;;;19.60
74536;BMP180;63013;51.104;-115.370;2023-01-19T11:50:43;86484.80;;;19.52
74536;BMP180;63013;51.104;-115.370;2023-01-19T11:53:24;86480.40;;;19.50
74536;BMP180;63013;51.104;-115.370;2023-01-19T11:56:00;86486.40;;;19.50
74536;BMP180;63013;51.104;-115.370;2023-01-19T11:58:35;86489.20;;;19.50
74536;BMP180;63013;51.104;-115.370;2023-01-19T12:06:39;86498.40;;;19.50
74536;BMP180;63013;51.104;-115.370;2023-01-19T12:09:27;86502.80;;;19.42
74536;BMP180;63013;51.104;-115.370;2023-01-19T12:12:05;86504.20;;;19.40
74536;BMP180;63013;51.104;-115.370;2023-01-19T12:15:09;86503.80;;;19.40
74536;BMP180;63013;51.104;-115.370;2023-01-19T12:17:55;86509.20;;;19.40
74536;BMP180;63013;51.104;-115.370;2023-01-19T12:20:36;86510.80;;;19.40
74536;BMP180;63013;51.104;-115.370;2023-01-19T12:23:16;86517.60;;;19.40
74536;BMP180;63013;51.104;-115.370;2023-01-19T12:28:50;86521.60;;;19.32
74536;BMP180;63013;51.104;-115.370;2023-01-19T12:31:22;86524.80;;;19.30
74536;BMP180;63013;51.104;-115.370;2023-01-19T12:33:50;86528.40;;;19.30
74536;BMP180;63013;51.104;-115.370;2023-01-19T12:41:40;86529.80;;;19.30
74536;BMP180;63013;51.104;-115.370;2023-01-19T12:46:43;86543.40;;;19.26
74536;BMP180;63013;51.104;-115.370;2023-01-19T13:00:36;86557.20;;;19.20
74536;BMP180;63013;51.104;-115.370;2023-01-19T13:08:13;86571.20;;;19.18
74536;BMP180;63013;51.104;-115.370;2023-01-19T13:13:35;86578.80;;;19.10
74536;BMP180;63013;51.104;-115.370;2023-01-19T13:18:51;86582.20;;;19.10
74536;BMP180;63013;51.104;-115.370;2023-01-19T13:23:59;86591.00;;;19.10
74536;BMP180;63013;51.104;-115.370;2023-01-19T13:29:39;86585.60;;;19.10
74536;BMP180;63013;51.104;-115.370;2023-01-19T13:32:18;86581.40;;;19.10
74536;BMP180;63013;51.104;-115.370;2023-01-19T13:34:55;86577.80;;;19.06
74536;BMP180;63013;51.104;-115.370;2023-01-19T13:37:46;86573.20;;;19.00
74536;BMP180;63013;51.104;-115.370;2023-01-19T13:40:26;86572.00;;;19.00
74536;BMP180;63013;51.104;-115.370;2023-01-19T13:42:56;86580.80;;;19.00
74536;BMP180;63013;51.104;-115.370;2023-01-19T13:45:30;86581.40;;;19.00
74536;BMP180;63013;51.104;-115.370;2023-01-19T13:48:04;86590.20;;;19.00
74536;BMP180;63013;51.104;-115.370;2023-01-19T13:50:35;86593.60;;;19.00
74536;BMP180;63013;51.104;-115.370;2023-01-19T13:53:20;86599.20;;;18.92
74536;BMP180;63013;51.104;-115.370;2023-01-19T13:56:22;86603.80;;;18.90
74536;BMP180;63013;51.104;-115.370;2023-01-19T13:59:09;86608.20;;;18.90
74536;BMP180;63013;51.104;-115.370;2023-01-19T14:01:40;86611.00;;;18.90
74536;BMP180;63013;51.104;-115.370;2023-01-19T14:04:32;86612.40;;;18.90
74536;BMP180;63013;51.104;-115.370;2023-01-19T14:07:12;86624.80;;;18.90
74536;BMP180;63013;51.104;-115.370;2023-01-19T14:09:40;86625.00;;;18.90
74536;BMP180;63013;51.104;-115.370;2023-01-19T14:12:15;86627.40;;;18.90
74536;BMP180;63013;51.104;-115.370;2023-01-19T14:14:45;86624.80;;;18.90
74536;BMP180;63013;51.104;-115.370;2023-01-19T14:20:25;86624.00;;;18.80
74536;BMP180;63013;51.104;-115.370;2023-01-19T14:22:53;86629.00;;;18.80
74536;BMP180;63013;51.104;-115.370;2023-01-19T14:25:35;86634.80;;;18.80
74536;BMP180;63013;51.104;-115.370;2023-01-19T14:28:33;86639.00;;;18.80
74536;BMP180;63013;51.104;-115.370;2023-01-19T14:31:24;86645.40;;;18.80
74536;BMP180;63013;51.104;-115.370;2023-01-19T14:33:55;86654.60;;;18.86
74536;BMP180;63013;51.104;-115.370;2023-01-19T14:36:36;86663.80;;;18.90
74536;BMP180;63013;51.104;-115.370;2023-01-19T14:39:17;86670.00;;;18.90
74536;BMP180;63013;51.104;-115.370;2023-01-19T14:41:50;86669.20;;;18.90
74536;BMP180;63013;51.104;-115.370;2023-01-19T14:44:37;86670.40;;;19.00
74536;BMP180;63013;51.104;-115.370;2023-01-19T14:47:15;86674.20;;;19.00
74536;BMP180;63013;51.104;-115.370;2023-01-19T14:49:47;86678.60;;;19.10
74536;BMP180;63013;51.104;-115.370;2023-01-19T14:52:39;86682.00;;;19.10
74536;BMP180;63013;51.104;-115.370;2023-01-19T14:55:19;86682.40;;;19.20
74536;BMP180;63013;51.104;-115.370;2023-01-19T14:57:48;86685.40;;;19.20
74536;BMP180;63013;51.104;-115.370;2023-01-19T15:00:18;86686.00;;;19.30
74536;BMP180;63013;51.104;-115.370;2023-01-19T15:02:46;86688.20;;;19.30
74536;BMP180;63013;51.104;-115.370;2023-01-19T15:05:14;86684.20;;;19.40
74536;BMP180;63013;51.104;-115.370;2023-01-19T15:07:44;86692.20;;;19.48
74536;BMP180;63013;51.104;-115.370;2023-01-19T15:10:21;86701.00;;;19.50